sensor_id;sensor_type;location;lat;lon;timestamp;P1;durP1;ratioP1;P2;durP2;ratioP2
11829;SDS011;5972;42.134;24.718;2022-10-19T00:00:13;46.87;;;43.77;;
11829;SDS011;5972;42.134;24.718;2022-10-19T00:02:40;46.70;;;43.77;;
11829;SDS011;5972;42.134;24.718;2022-10-19T00:05:09;48.00;;;44.43;;
11829;SDS011;5972;42.134;24.718;2022-10-19T00:07:36;48.63;;;45.50;;
11829;SDS011;5972;42.134;24.718;2022-10-19T00:10:03;51.53;;;48.27;;
11829;SDS011;5972;42.134;24.718;2022-10-19T00:12:30;59.43;;;55.47;;
11829;SDS011;5972;42.134;24.718;2022-10-19T00:14:57;64.47;;;60.37;;
11829;SDS011;5972;42.134;24.718;2022-10-19T00:17:24;63.23;;;59.30;;
11829;SDS011;5972;42.134;24.718;2022-10-19T00:19:51;65.07;;;61.17;;
11829;SDS011;5972;42.134;24.718;2022-10-19T00:22:19;64.97;;;60.83;;
11829;SDS011;5972;42.134;24.718;2022-10-19T00:24:46;65.23;;;61.23;;
11829;SDS011;5972;42.134;24.718;2022-10-19T00:27:13;86.63;;;81.63;;
11829;SDS011;5972;42.134;24.718;2022-10-19T00:29:40;76.57;;;72.30;;
11829;SDS011;5972;42.134;24.718;2022-10-19T00:32:06;59.70;;;56.20;;
11829;SDS011;5972;42.134;24.718;2022-10-19T00:34:33;65.50;;;61.10;;
11829;SDS011;5972;42.134;24.718;2022-10-19T00:37:00;52.23;;;49.13;;
11829;SDS011;5972;42.134;24.718;2022-10-19T00:39:28;59.23;;;55.63;;
11829;SDS011;5972;42.134;24.718;2022-10-19T00:41:55;55.33;;;51.90;;
11829;SDS011;5972;42.134;24.718;2022-10-19T00:47:27;59.00;;;55.37;;
11829;SDS011;5972;42.134;24.718;2022-10-19T00:49:54;56.03;;;52.43;;
11829;SDS011;5972;42.134;24.718;2022-10-19T00:52:23;63.43;;;58.97;;
11829;SDS011;5972;42.134;24.718;2022-10-19T00:54:53;60.73;;;56.73;;
11829;SDS011;5972;42.134;24.718;2022-10-19T00:57:21;55.43;;;51.73;;
11829;SDS011;5972;42.134;24.718;2022-10-19T00:59:49;53.07;;;49.50;;
11829;SDS011;5972;42.134;24.718;2022-10-19T01:02:17;48.40;;;45.23;;
11829;SDS011;5972;42.134;24.718;2022-10-19T01:04:45;53.00;;;49.77;;
11829;SDS011;5972;42.134;24.718;2022-10-19T01:07:14;47.47;;;44.43;;
11829;SDS011;5972;42.134;24.718;2022-10-19T01:09:41;42.57;;;39.93;;
11829;SDS011;5972;42.134;24.718;2022-10-19T01:12:12;45.60;;;42.77;;
11829;SDS011;5972;42.134;24.718;2022-10-19T01:15:02;51.27;;;48.00;;
11829;SDS011;5972;42.134;24.718;2022-10-19T01:17:43;48.33;;;45.40;;
11829;SDS011;5972;42.134;24.718;2022-10-19T01:20:27;67.80;;;63.93;;
11829;SDS011;5972;42.134;24.718;2022-10-19T01:23:11;51.33;;;48.13;;
11829;SDS011;5972;42.134;24.718;2022-10-19T01:25:58;48.47;;;45.27;;
11829;SDS011;5972;42.134;24.718;2022-10-19T01:28:44;47.87;;;44.47;;
11829;SDS011;5972;42.134;24.718;2022-10-19T01:31:28;51.83;;;48.63;;
11829;SDS011;5972;42.134;24.718;2022-10-19T01:34:03;58.10;;;54.40;;
11829;SDS011;5972;42.134;24.718;2022-10-19T01:36:36;53.13;;;49.73;;
11829;SDS011;5972;42.134;24.718;2022-10-19T01:39:07;62.60;;;58.87;;
11829;SDS011;5972;42.134;24.718;2022-10-19T01:41:41;72.13;;;67.97;;
11829;SDS011;5972;42.134;24.718;2022-10-19T01:44:14;89.40;;;83.77;;
11829;SDS011;5972;42.134;24.718;2022-10-19T01:46:46;73.67;;;69.47;;
11829;SDS011;5972;42.134;24.718;2022-10-19T01:49:19;83.00;;;78.27;;
11829;SDS011;5972;42.134;24.718;2022-10-19T01:51:53;101.47;;;95.27;;
11829;SDS011;5972;42.134;24.718;2022-10-19T01:54:24;71.20;;;66.93;;
11829;SDS011;5972;42.134;24.718;2022-10-19T01:56:54;91.20;;;85.10;;
11829;SDS011;5972;42.134;24.718;2022-10-19T01:59:24;80.07;;;74.97;;
11829;SDS011;5972;42.134;24.718;2022-10-19T02:01:53;64.23;;;60.40;;
11829;SDS011;5972;42.134;24.718;2022-10-19T02:04:21;57.13;;;53.43;;
11829;SDS011;5972;42.134;24.718;2022-10-19T02:06:50;67.70;;;63.50;;
11829;SDS011;5972;42.134;24.718;2022-10-19T02:09:19;76.70;;;72.27;;
11829;SDS011;5972;42.134;24.718;2022-10-19T02:11:46;73.70;;;69.50;;
11829;SDS011;5972;42.134;24.718;2022-10-19T02:14:16;77.97;;;73.27;;
11829;SDS011;5972;42.134;24.718;2022-10-19T02:16:48;71.13;;;67.00;;
11829;SDS011;5972;42.134;24.718;2022-10-19T02:19:19;79.33;;;74.40;;
11829;SDS011;5972;42.134;24.718;2022-10-19T02:21:47;68.97;;;64.97;;
11829;SDS011;5972;42.134;24.718;2022-10-19T02:24:15;63.53;;;59.67;;
11829;SDS011;5972;42.134;24.718;2022-10-19T02:26:42;50.87;;;47.73;;
11829;SDS011;5972;42.134;24.718;2022-10-19T02:29:09;44.67;;;41.83;;
11829;SDS011;5972;42.134;24.718;2022-10-19T02:31:39;31.23;;;29.27;;
11829;SDS011;5972;42.134;24.718;2022-10-19T02:34:06;30.47;;;27.77;;
11829;SDS011;5972;42.134;24.718;2022-10-19T02:36:34;48.33;;;45.40;;
11829;SDS011;5972;42.134;24.718;2022-10-19T02:39:01;41.80;;;39.20;;
11829;SDS011;5972;42.134;24.718;2022-10-19T02:41:29;46.97;;;43.97;;
11829;SDS011;5972;42.134;24.718;2022-10-19T02:44:02;42.23;;;39.13;;
11829;SDS011;5972;42.134;24.718;2022-10-19T02:46:31;33.83;;;31.57;;
11829;SDS011;5972;42.134;24.718;2022-10-19T02:49:03;50.17;;;47.30;;
11829;SDS011;5972;42.134;24.718;2022-10-19T02:51:36;53.37;;;50.03;;
11829;SDS011;5972;42.134;24.718;2022-10-19T02:54:05;50.60;;;47.47;;
11829;SDS011;5972;42.134;24.718;2022-10-19T02:56:33;54.67;;;51.20;;
11829;SDS011;5972;42.134;24.718;2022-10-19T02:59:00;48.43;;;45.37;;
11829;SDS011;5972;42.134;24.718;2022-10-19T03:01:27;47.73;;;44.87;;
11829;SDS011;5972;42.134;24.718;2022-10-19T03:03:54;43.50;;;40.47;;
11829;SDS011;5972;42.134;24.718;2022-10-19T03:06:21;42.67;;;39.83;;
11829;SDS011;5972;42.134;24.718;2022-10-19T03:08:49;42.80;;;40.07;;
11829;SDS011;5972;42.134;24.718;2022-10-19T03:11:16;42.53;;;39.97;;
11829;SDS011;5972;42.134;24.718;2022-10-19T03:13:43;44.27;;;41.23;;
11829;SDS011;5972;42.134;24.718;2022-10-19T03:16:10;40.37;;;36.67;;
11829;SDS011;5972;42.134;24.718;2022-10-19T03:18:38;40.57;;;37.60;;
11829;SDS011;5972;42.134;24.718;2022-10-19T03:21:06;39.63;;;36.77;;
11829;SDS011;5972;42.134;24.718;2022-10-19T03:23:34;38.20;;;35.80;;
11829;SDS011;5972;42.134;24.718;2022-10-19T03:26:03;36.63;;;34.33;;
11829;SDS011;5972;42.134;24.718;2022-10-19T03:28:31;39.70;;;36.77;;
11829;SDS011;5972;42.134;24.718;2022-10-19T03:30:58;40.30;;;37.80;;
11829;SDS011;5972;42.134;24.718;2022-10-19T03:33:25;38.30;;;36.00;;
11829;SDS011;5972;42.134;24.718;2022-10-19T03:38:44;39.63;;;37.13;;
11829;SDS011;5972;42.134;24.718;2022-10-19T03:41:12;39.23;;;36.20;;
11829;SDS011;5972;42.134;24.718;2022-10-19T03:43:39;34.80;;;32.30;;
11829;SDS011;5972;42.134;24.718;2022-10-19T03:46:06;36.67;;;34.03;;
11829;SDS011;5972;42.134;24.718;2022-10-19T03:48:33;39.40;;;36.17;;
11829;SDS011;5972;42.134;24.718;2022-10-19T03:51:01;39.73;;;37.00;;
11829;SDS011;5972;42.134;24.718;2022-10-19T03:53:30;33.57;;;30.83;;
11829;SDS011;5972;42.134;24.718;2022-10-19T03:56:00;34.90;;;31.40;;
11829;SDS011;5972;42.134;24.718;2022-10-19T03:58:30;34.63;;;31.97;;
11829;SDS011;5972;42.134;24.718;2022-10-19T04:00:58;35.27;;;32.37;;
11829;SDS011;5972;42.134;24.718;2022-10-19T04:03:31;35.63;;;32.80;;
11829;SDS011;5972;42.134;24.718;2022-10-19T04:06:02;34.40;;;32.00;;
11829;SDS011;5972;42.134;24.718;2022-10-19T04:08:30;33.07;;;30.73;;
11829;SDS011;5972;42.134;24.718;2022-10-19T04:10:57;44.30;;;41.03;;
11829;SDS011;5972;42.134;24.718;2022-10-19T04:13:25;40.70;;;37.43;;
11829;SDS011;5972;42.134;24.718;2022-10-19T04:15:54;34.33;;;31.90;;
11829;SDS011;5972;42.134;24.718;2022-10-19T04:18:21;33.37;;;30.70;;
11829;SDS011;5972;42.134;24.718;2022-10-19T04:20:47;37.47;;;34.87;;
11829;SDS011;5972;42.134;24.718;2022-10-19T04:23:14;33.27;;;30.30;;
11829;SDS011;5972;42.134;24.718;2022-10-19T04:25:41;31.63;;;29.40;;
11829;SDS011;5972;42.134;24.718;2022-10-19T04:28:08;28.03;;;25.73;;
11829;SDS011;5972;42.134;24.718;2022-10-19T04:30:35;25.90;;;22.97;;
11829;SDS011;5972;42.134;24.718;2022-10-19T04:33:03;32.03;;;29.20;;
11829;SDS011;5972;42.134;24.718;2022-10-19T04:35:30;36.40;;;33.77;;
11829;SDS011;5972;42.134;24.718;2022-10-19T04:37:57;34.00;;;31.40;;
11829;SDS011;5972;42.134;24.718;2022-10-19T04:40:24;41.03;;;37.83;;
11829;SDS011;5972;42.134;24.718;2022-10-19T04:42:51;44.70;;;40.80;;
11829;SDS011;5972;42.134;24.718;2022-10-19T04:45:18;41.33;;;38.00;;
11829;SDS011;5972;42.134;24.718;2022-10-19T04:47:44;37.70;;;34.70;;
11829;SDS011;5972;42.134;24.718;2022-10-19T04:50:13;34.97;;;32.40;;
11829;SDS011;5972;42.134;24.718;2022-10-19T04:52:39;36.63;;;33.80;;
11829;SDS011;5972;42.134;24.718;2022-10-19T04:55:09;41.97;;;38.87;;
11829;SDS011;5972;42.134;24.718;2022-10-19T04:57:36;38.33;;;35.23;;
11829;SDS011;5972;42.134;24.718;2022-10-19T05:00:03;34.40;;;31.83;;
11829;SDS011;5972;42.134;24.718;2022-10-19T05:02:31;37.27;;;33.50;;
11829;SDS011;5972;42.134;24.718;2022-10-19T05:04:58;36.67;;;33.37;;
11829;SDS011;5972;42.134;24.718;2022-10-19T05:07:26;30.07;;;27.50;;
11829;SDS011;5972;42.134;24.718;2022-10-19T05:09:53;31.70;;;29.10;;
11829;SDS011;5972;42.134;24.718;2022-10-19T05:12:20;24.43;;;22.20;;
11829;SDS011;5972;42.134;24.718;2022-10-19T05:14:47;16.73;;;15.10;;
11829;SDS011;5972;42.134;24.718;2022-10-19T05:17:13;17.70;;;14.90;;
11829;SDS011;5972;42.134;24.718;2022-10-19T05:19:40;18.33;;;14.13;;
11829;SDS011;5972;42.134;24.718;2022-10-19T05:22:07;17.77;;;14.77;;
11829;SDS011;5972;42.134;24.718;2022-10-19T05:24:36;17.20;;;14.70;;
11829;SDS011;5972;42.134;24.718;2022-10-19T05:27:03;20.23;;;18.67;;
11829;SDS011;5972;42.134;24.718;2022-10-19T05:29:30;20.73;;;18.10;;
11829;SDS011;5972;42.134;24.718;2022-10-19T05:31:58;22.17;;;16.33;;
11829;SDS011;5972;42.134;24.718;2022-10-19T05:34:24;26.20;;;24.10;;
11829;SDS011;5972;42.134;24.718;2022-10-19T05:36:51;30.97;;;28.33;;
11829;SDS011;5972;42.134;24.718;2022-10-19T05:39:20;40.57;;;37.47;;
11829;SDS011;5972;42.134;24.718;2022-10-19T05:41:48;41.17;;;38.25;;
11829;SDS011;5972;42.134;24.718;2022-10-19T05:44:16;43.92;;;40.80;;
11829;SDS011;5972;42.134;24.718;2022-10-19T05:46:44;57.90;;;54.00;;
11829;SDS011;5972;42.134;24.718;2022-10-19T05:49:12;80.95;;;75.75;;
11829;SDS011;5972;42.134;24.718;2022-10-19T05:51:41;72.35;;;67.82;;
11829;SDS011;5972;42.134;24.718;2022-10-19T05:54:08;56.60;;;52.92;;
11829;SDS011;5972;42.134;24.718;2022-10-19T05:56:35;34.42;;;31.45;;
11829;SDS011;5972;42.134;24.718;2022-10-19T05:59:04;28.75;;;26.45;;
11829;SDS011;5972;42.134;24.718;2022-10-19T06:01:33;85.22;;;80.63;;
11829;SDS011;5972;42.134;24.718;2022-10-19T06:04:01;73.15;;;68.55;;
11829;SDS011;5972;42.134;24.718;2022-10-19T06:06:29;79.53;;;74.80;;
11829;SDS011;5972;42.134;24.718;2022-10-19T06:08:57;82.15;;;77.18;;
11829;SDS011;5972;42.134;24.718;2022-10-19T06:11:25;89.53;;;84.25;;
11829;SDS011;5972;42.134;24.718;2022-10-19T06:13:54;93.68;;;88.55;;
11829;SDS011;5972;42.134;24.718;2022-10-19T06:16:24;89.05;;;83.55;;
11829;SDS011;5972;42.134;24.718;2022-10-19T06:18:52;123.03;;;116.05;;
11829;SDS011;5972;42.134;24.718;2022-10-19T06:21:20;135.13;;;127.85;;
11829;SDS011;5972;42.134;24.718;2022-10-19T06:23:48;123.28;;;116.50;;
11829;SDS011;5972;42.134;24.718;2022-10-19T06:26:16;114.95;;;108.65;;
11829;SDS011;5972;42.134;24.718;2022-10-19T06:28:43;95.00;;;89.68;;
11829;SDS011;5972;42.134;24.718;2022-10-19T06:31:11;101.72;;;95.85;;
11829;SDS011;5972;42.134;24.718;2022-10-19T06:33:40;96.15;;;90.95;;
11829;SDS011;5972;42.134;24.718;2022-10-19T06:36:10;96.65;;;91.47;;
11829;SDS011;5972;42.134;24.718;2022-10-19T06:38:38;83.82;;;79.15;;
11829;SDS011;5972;42.134;24.718;2022-10-19T06:41:06;75.43;;;70.82;;
11829;SDS011;5972;42.134;24.718;2022-10-19T06:43:34;74.03;;;69.78;;
11829;SDS011;5972;42.134;24.718;2022-10-19T06:46:02;63.72;;;59.97;;
11829;SDS011;5972;42.134;24.718;2022-10-19T06:48:30;77.88;;;73.22;;
11829;SDS011;5972;42.134;24.718;2022-10-19T06:50:59;76.20;;;71.85;;
11829;SDS011;5972;42.134;24.718;2022-10-19T06:53:27;62.33;;;58.08;;
11829;SDS011;5972;42.134;24.718;2022-10-19T06:55:56;56.20;;;51.95;;
11829;SDS011;5972;42.134;24.718;2022-10-19T06:58:23;39.45;;;36.33;;
11829;SDS011;5972;42.134;24.718;2022-10-19T07:00:54;43.20;;;40.47;;
11829;SDS011;5972;42.134;24.718;2022-10-19T07:03:21;31.85;;;29.00;;
11829;SDS011;5972;42.134;24.718;2022-10-19T07:05:52;36.78;;;34.05;;
11829;SDS011;5972;42.134;24.718;2022-10-19T07:08:21;74.10;;;69.53;;
11829;SDS011;5972;42.134;24.718;2022-10-19T07:10:49;41.97;;;39.42;;
11829;SDS011;5972;42.134;24.718;2022-10-19T07:13:16;46.25;;;43.28;;
11829;SDS011;5972;42.134;24.718;2022-10-19T07:15:43;47.30;;;43.90;;
11829;SDS011;5972;42.134;24.718;2022-10-19T07:18:10;44.72;;;41.45;;
11829;SDS011;5972;42.134;24.718;2022-10-19T07:20:37;76.57;;;71.75;;
11829;SDS011;5972;42.134;24.718;2022-10-19T07:23:05;47.85;;;44.65;;
11829;SDS011;5972;42.134;24.718;2022-10-19T07:25:33;57.13;;;53.88;;
11829;SDS011;5972;42.134;24.718;2022-10-19T07:28:01;39.95;;;36.58;;
11829;SDS011;5972;42.134;24.718;2022-10-19T07:30:28;35.83;;;33.38;;
11829;SDS011;5972;42.134;24.718;2022-10-19T07:32:55;39.72;;;37.25;;
11829;SDS011;5972;42.134;24.718;2022-10-19T07:35:21;52.70;;;48.90;;
11829;SDS011;5972;42.134;24.718;2022-10-19T07:37:48;61.58;;;57.58;;
11829;SDS011;5972;42.134;24.718;2022-10-19T07:40:15;69.72;;;65.63;;
11829;SDS011;5972;42.134;24.718;2022-10-19T07:42:43;31.33;;;28.90;;
11829;SDS011;5972;42.134;24.718;2022-10-19T07:45:10;51.67;;;48.40;;
11829;SDS011;5972;42.134;24.718;2022-10-19T07:47:37;40.97;;;38.13;;
11829;SDS011;5972;42.134;24.718;2022-10-19T07:50:04;26.98;;;25.17;;
11829;SDS011;5972;42.134;24.718;2022-10-19T07:52:31;32.75;;;30.13;;
11829;SDS011;5972;42.134;24.718;2022-10-19T07:54:58;33.83;;;31.35;;
11829;SDS011;5972;42.134;24.718;2022-10-19T07:57:25;35.15;;;32.85;;
11829;SDS011;5972;42.134;24.718;2022-10-19T07:59:53;42.35;;;39.92;;
11829;SDS011;5972;42.134;24.718;2022-10-19T08:02:20;33.10;;;30.40;;
11829;SDS011;5972;42.134;24.718;2022-10-19T08:04:46;103.18;;;96.85;;
11829;SDS011;5972;42.134;24.718;2022-10-19T08:07:13;133.75;;;126.18;;
11829;SDS011;5972;42.134;24.718;2022-10-19T08:09:40;68.82;;;63.95;;
11829;SDS011;5972;42.134;24.718;2022-10-19T08:12:07;50.97;;;47.75;;
11829;SDS011;5972;42.134;24.718;2022-10-19T08:14:34;48.75;;;45.10;;
11829;SDS011;5972;42.134;24.718;2022-10-19T08:17:02;44.30;;;41.55;;
11829;SDS011;5972;42.134;24.718;2022-10-19T08:19:29;28.70;;;26.55;;
11829;SDS011;5972;42.134;24.718;2022-10-19T08:21:56;29.90;;;27.67;;
11829;SDS011;5972;42.134;24.718;2022-10-19T08:24:23;32.42;;;30.25;;
11829;SDS011;5972;42.134;24.718;2022-10-19T08:26:49;32.03;;;29.85;;
11829;SDS011;5972;42.134;24.718;2022-10-19T08:29:17;34.20;;;32.15;;
11829;SDS011;5972;42.134;24.718;2022-10-19T08:31:46;36.38;;;33.38;;
11829;SDS011;5972;42.134;24.718;2022-10-19T08:34:15;38.20;;;34.75;;
11829;SDS011;5972;42.134;24.718;2022-10-19T08:36:42;37.72;;;34.90;;
11829;SDS011;5972;42.134;24.718;2022-10-19T08:39:09;35.00;;;32.53;;
11829;SDS011;5972;42.134;24.718;2022-10-19T08:41:42;35.38;;;32.75;;
11829;SDS011;5972;42.134;24.718;2022-10-19T08:47:23;52.92;;;49.67;;
11829;SDS011;5972;42.134;24.718;2022-10-19T08:49:59;46.10;;;42.90;;
11829;SDS011;5972;42.134;24.718;2022-10-19T08:52:27;39.47;;;36.80;;
11829;SDS011;5972;42.134;24.718;2022-10-19T08:54:58;81.18;;;76.50;;
11829;SDS011;5972;42.134;24.718;2022-10-19T08:57:31;41.83;;;38.97;;
11829;SDS011;5972;42.134;24.718;2022-10-19T09:00:10;35.58;;;32.75;;
11829;SDS011;5972;42.134;24.718;2022-10-19T09:02:44;31.25;;;28.88;;
11829;SDS011;5972;42.134;24.718;2022-10-19T09:05:27;50.50;;;47.35;;
11829;SDS011;5972;42.134;24.718;2022-10-19T09:08:01;34.83;;;32.17;;
11829;SDS011;5972;42.134;24.718;2022-10-19T09:10:28;30.48;;;28.30;;
11829;SDS011;5972;42.134;24.718;2022-10-19T09:12:58;34.97;;;32.72;;
11829;SDS011;5972;42.134;24.718;2022-10-19T09:15:28;56.55;;;52.53;;
11829;SDS011;5972;42.134;24.718;2022-10-19T09:18:04;63.72;;;59.97;;
11829;SDS011;5972;42.134;24.718;2022-10-19T09:20:37;154.95;;;146.13;;
11829;SDS011;5972;42.134;24.718;2022-10-19T09:23:08;165.10;;;156.15;;
11829;SDS011;5972;42.134;24.718;2022-10-19T09:25:41;164.75;;;155.35;;
11829;SDS011;5972;42.134;24.718;2022-10-19T09:28:11;111.70;;;105.68;;
11829;SDS011;5972;42.134;24.718;2022-10-19T09:30:47;81.30;;;76.53;;
11829;SDS011;5972;42.134;24.718;2022-10-19T09:33:20;71.55;;;66.95;;
11829;SDS011;5972;42.134;24.718;2022-10-19T09:35:53;70.93;;;66.30;;
11829;SDS011;5972;42.134;24.718;2022-10-19T09:38:23;163.63;;;154.77;;
11829;SDS011;5972;42.134;24.718;2022-10-19T09:40:55;86.38;;;81.20;;
11829;SDS011;5972;42.134;24.718;2022-10-19T09:43:23;59.45;;;55.58;;
11829;SDS011;5972;42.134;24.718;2022-10-19T09:45:52;75.05;;;69.65;;
11829;SDS011;5972;42.134;24.718;2022-10-19T09:48:26;88.90;;;83.47;;
11829;SDS011;5972;42.134;24.718;2022-10-19T09:50:58;49.08;;;45.55;;
11829;SDS011;5972;42.134;24.718;2022-10-19T09:53:27;86.97;;;81.45;;
11829;SDS011;5972;42.134;24.718;2022-10-19T09:55:58;134.77;;;126.90;;
11829;SDS011;5972;42.134;24.718;2022-10-19T09:58:30;140.95;;;132.68;;
11829;SDS011;5972;42.134;24.718;2022-10-19T10:00:58;116.65;;;109.55;;
11829;SDS011;5972;42.134;24.718;2022-10-19T10:03:26;131.85;;;123.72;;
11829;SDS011;5972;42.134;24.718;2022-10-19T10:05:55;149.48;;;141.10;;
11829;SDS011;5972;42.134;24.718;2022-10-19T10:08:29;96.00;;;90.53;;
11829;SDS011;5972;42.134;24.718;2022-10-19T10:11:03;144.20;;;136.05;;
11829;SDS011;5972;42.134;24.718;2022-10-19T10:13:34;77.22;;;72.18;;
11829;SDS011;5972;42.134;24.718;2022-10-19T10:16:03;80.20;;;74.43;;
11829;SDS011;5972;42.134;24.718;2022-10-19T10:18:34;83.32;;;78.38;;
11829;SDS011;5972;42.134;24.718;2022-10-19T10:21:11;95.72;;;90.43;;
11829;SDS011;5972;42.134;24.718;2022-10-19T10:23:40;113.32;;;106.65;;
11829;SDS011;5972;42.134;24.718;2022-10-19T10:26:17;142.45;;;134.35;;
11829;SDS011;5972;42.134;24.718;2022-10-19T10:28:45;113.53;;;106.68;;
11829;SDS011;5972;42.134;24.718;2022-10-19T10:31:13;129.52;;;122.68;;
11829;SDS011;5972;42.134;24.718;2022-10-19T10:33:44;90.82;;;85.78;;
11829;SDS011;5972;42.134;24.718;2022-10-19T10:36:21;84.70;;;79.80;;
11829;SDS011;5972;42.134;24.718;2022-10-19T10:38:51;82.25;;;77.18;;
11829;SDS011;5972;42.134;24.718;2022-10-19T10:41:22;72.60;;;68.45;;
11829;SDS011;5972;42.134;24.718;2022-10-19T10:43:53;131.25;;;124.30;;
11829;SDS011;5972;42.134;24.718;2022-10-19T10:46:23;83.22;;;77.90;;
11829;SDS011;5972;42.134;24.718;2022-10-19T10:48:54;119.97;;;113.38;;
11829;SDS011;5972;42.134;24.718;2022-10-19T10:51:26;130.65;;;123.70;;
11829;SDS011;5972;42.134;24.718;2022-10-19T10:54:05;164.52;;;155.40;;
11829;SDS011;5972;42.134;24.718;2022-10-19T10:56:41;166.02;;;157.32;;
11829;SDS011;5972;42.134;24.718;2022-10-19T10:59:11;143.95;;;136.35;;
11829;SDS011;5972;42.134;24.718;2022-10-19T11:01:41;138.68;;;131.52;;
11829;SDS011;5972;42.134;24.718;2022-10-19T11:04:16;162.48;;;153.73;;
11829;SDS011;5972;42.134;24.718;2022-10-19T11:06:52;185.82;;;175.95;;
11829;SDS011;5972;42.134;24.718;2022-10-19T11:09:24;224.07;;;212.27;;
11829;SDS011;5972;42.134;24.718;2022-10-19T11:11:56;316.92;;;299.13;;
11829;SDS011;5972;42.134;24.718;2022-10-19T11:14:29;260.88;;;246.75;;
11829;SDS011;5972;42.134;24.718;2022-10-19T11:17:03;279.33;;;264.52;;
11829;SDS011;5972;42.134;24.718;2022-10-19T11:19:33;271.27;;;256.67;;
11829;SDS011;5972;42.134;24.718;2022-10-19T11:22:05;338.23;;;319.50;;
11829;SDS011;5972;42.134;24.718;2022-10-19T11:24:46;288.00;;;272.65;;
11829;SDS011;5972;42.134;24.718;2022-10-19T11:27:26;289.48;;;273.75;;
11829;SDS011;5972;42.134;24.718;2022-10-19T11:30:11;299.75;;;283.33;;
11829;SDS011;5972;42.134;24.718;2022-10-19T11:32:45;341.42;;;322.30;;
11829;SDS011;5972;42.134;24.718;2022-10-19T11:35:24;320.95;;;303.05;;
11829;SDS011;5972;42.134;24.718;2022-10-19T11:38:06;324.98;;;307.35;;
11829;SDS011;5972;42.134;24.718;2022-10-19T11:40:44;379.73;;;358.40;;
11829;SDS011;5972;42.134;24.718;2022-10-19T11:43:19;371.20;;;350.05;;
11829;SDS011;5972;42.134;24.718;2022-10-19T11:45:58;377.67;;;356.23;;
11829;SDS011;5972;42.134;24.718;2022-10-19T11:48:43;388.88;;;366.85;;
11829;SDS011;5972;42.134;24.718;2022-10-19T11:51:28;390.50;;;368.20;;
11829;SDS011;5972;42.134;24.718;2022-10-19T11:54:06;403.65;;;380.77;;
11829;SDS011;5972;42.134;24.718;2022-10-19T11:56:48;390.48;;;368.13;;
11829;SDS011;5972;42.134;24.718;2022-10-19T11:59:46;450.60;;;424.92;;
11829;SDS011;5972;42.134;24.718;2022-10-19T12:02:40;418.48;;;394.80;;
11829;SDS011;5972;42.134;24.718;2022-10-19T12:05:31;434.23;;;408.73;;
11829;SDS011;5972;42.134;24.718;2022-10-19T12:08:06;429.23;;;404.73;;
11829;SDS011;5972;42.134;24.718;2022-10-19T12:10:52;407.67;;;384.67;;
11829;SDS011;5972;42.134;24.718;2022-10-19T12:13:37;409.50;;;386.20;;
11829;SDS011;5972;42.134;24.718;2022-10-19T12:16:07;389.77;;;367.80;;
11829;SDS011;5972;42.134;24.718;2022-10-19T12:18:38;370.90;;;350.38;;
11829;SDS011;5972;42.134;24.718;2022-10-19T12:21:09;367.23;;;346.70;;
11829;SDS011;5972;42.134;24.718;2022-10-19T12:23:40;344.55;;;325.42;;
11829;SDS011;5972;42.134;24.718;2022-10-19T12:26:14;343.67;;;324.55;;
11829;SDS011;5972;42.134;24.718;2022-10-19T12:28:45;392.35;;;369.65;;
11829;SDS011;5972;42.134;24.718;2022-10-19T12:31:15;404.10;;;380.90;;
11829;SDS011;5972;42.134;24.718;2022-10-19T12:33:44;465.38;;;437.95;;
11829;SDS011;5972;42.134;24.718;2022-10-19T12:36:23;441.20;;;415.90;;
11829;SDS011;5972;42.134;24.718;2022-10-19T12:38:59;477.38;;;449.50;;
11829;SDS011;5972;42.134;24.718;2022-10-19T12:41:52;503.05;;;473.30;;
11829;SDS011;5972;42.134;24.718;2022-10-19T12:44:41;485.20;;;456.80;;
11829;SDS011;5972;42.134;24.718;2022-10-19T12:47:21;526.60;;;494.92;;
11829;SDS011;5972;42.134;24.718;2022-10-19T12:49:50;454.08;;;427.30;;
11829;SDS011;5972;42.134;24.718;2022-10-19T12:55:11;466.17;;;439.25;;
11829;SDS011;5972;42.134;24.718;2022-10-19T12:57:56;459.88;;;432.95;;
11829;SDS011;5972;42.134;24.718;2022-10-19T13:00:30;457.45;;;431.05;;
11829;SDS011;5972;42.134;24.718;2022-10-19T13:03:00;450.73;;;425.13;;
11829;SDS011;5972;42.134;24.718;2022-10-19T13:05:32;493.33;;;463.88;;
11829;SDS011;5972;42.134;24.718;2022-10-19T13:08:01;446.92;;;419.50;;
11829;SDS011;5972;42.134;24.718;2022-10-19T13:10:30;439.88;;;414.42;;
11829;SDS011;5972;42.134;24.718;2022-10-19T13:13:01;507.65;;;477.55;;
11829;SDS011;5972;42.134;24.718;2022-10-19T13:21:47;465.70;;;438.70;;
11829;SDS011;5972;42.134;24.718;2022-10-19T13:27:26;408.90;;;385.88;;
11829;SDS011;5972;42.134;24.718;2022-10-19T13:30:03;455.33;;;428.92;;
11829;SDS011;5972;42.134;24.718;2022-10-19T13:32:34;398.00;;;375.75;;
11829;SDS011;5972;42.134;24.718;2022-10-19T13:38:19;437.50;;;412.48;;
11829;SDS011;5972;42.134;24.718;2022-10-19T13:40:59;437.98;;;412.98;;
11829;SDS011;5972;42.134;24.718;2022-10-19T13:43:29;414.98;;;391.70;;
11829;SDS011;5972;42.134;24.718;2022-10-19T13:46:01;419.33;;;395.30;;
11829;SDS011;5972;42.134;24.718;2022-10-19T13:48:43;448.77;;;422.73;;
11829;SDS011;5972;42.134;24.718;2022-10-19T13:51:33;456.60;;;430.40;;
11829;SDS011;5972;42.134;24.718;2022-10-19T13:54:15;459.55;;;431.58;;
11829;SDS011;5972;42.134;24.718;2022-10-19T13:56:57;501.15;;;470.52;;
11829;SDS011;5972;42.134;24.718;2022-10-19T13:59:54;464.13;;;436.48;;
11829;SDS011;5972;42.134;24.718;2022-10-19T14:02:38;481.20;;;453.17;;
11829;SDS011;5972;42.134;24.718;2022-10-19T14:08:18;532.55;;;500.50;;
11829;SDS011;5972;42.134;24.718;2022-10-19T14:11:00;495.58;;;465.60;;
11829;SDS011;5972;42.134;24.718;2022-10-19T14:13:29;492.15;;;461.05;;
11829;SDS011;5972;42.134;24.718;2022-10-19T14:15:57;470.58;;;441.27;;
11829;SDS011;5972;42.134;24.718;2022-10-19T14:18:29;459.70;;;431.88;;
11829;SDS011;5972;42.134;24.718;2022-10-19T14:20:58;434.65;;;408.75;;
11829;SDS011;5972;42.134;24.718;2022-10-19T14:23:27;440.10;;;413.70;;
11829;SDS011;5972;42.134;24.718;2022-10-19T14:25:56;407.35;;;382.55;;
11829;SDS011;5972;42.134;24.718;2022-10-19T14:28:26;375.70;;;352.85;;
11829;SDS011;5972;42.134;24.718;2022-10-19T14:30:54;385.98;;;363.02;;
11829;SDS011;5972;42.134;24.718;2022-10-19T14:33:23;420.50;;;394.90;;
11829;SDS011;5972;42.134;24.718;2022-10-19T14:35:52;417.27;;;392.42;;
11829;SDS011;5972;42.134;24.718;2022-10-19T14:38:21;391.95;;;368.33;;
11829;SDS011;5972;42.134;24.718;2022-10-19T14:40:52;365.73;;;343.98;;
11829;SDS011;5972;42.134;24.718;2022-10-19T14:43:20;328.65;;;309.35;;
11829;SDS011;5972;42.134;24.718;2022-10-19T14:46:02;361.15;;;339.65;;
11829;SDS011;5972;42.134;24.718;2022-10-19T14:48:36;383.67;;;361.30;;
11829;SDS011;5972;42.134;24.718;2022-10-19T14:51:06;357.20;;;335.80;;
11829;SDS011;5972;42.134;24.718;2022-10-19T14:53:40;395.77;;;370.92;;
11829;SDS011;5972;42.134;24.718;2022-10-19T14:56:10;373.55;;;351.98;;
11829;SDS011;5972;42.134;24.718;2022-10-19T14:58:41;342.30;;;322.27;;
11829;SDS011;5972;42.134;24.718;2022-10-19T15:01:14;581.53;;;544.17;;